Latest Weather Observations for Leinster

IDW60801

Issued at 9:32 pm WST Tuesday 9 February 2016 (issued every 30 minutes, with the page automatically refreshed every 10 minutes)

About weather observations | Map of weather stations | Latest weather observations for WA | Other Formats
Station Details ID: 012314 Name: LEINSTER AERO Lat: -27.84 Lon: 120.70 Height: 497.0 m
Data from the previous 72 hours. | See also: Recent months at Leinster
Date/Time
WST
Temp
°C
App
Temp
°C
Dew
Point
Rel
Hum
%
Delta-T
°C
Wind Press
QNH
hPa
Press
MSL
hPa
Rain
since 9 am
mm
Dir
 
Spd
km/h
Gust
km/h
Spd
kts
Gust
kts
09/09:30pm 30.8 27.3 1.2 15 14.8 ESE 9 13 5 7 1015.9 1012.3 0.0
09/09:00pm 31.6 27.4 1.8 15 15.2 SE 13 17 7 9 1016.0 1012.4 0.0
09/08:30pm 32.3 28.2 2.4 15 15.4 SE 13 15 7 8 1015.8 1012.2 0.0
09/08:00pm 32.3 29.0 2.4 15 15.4 SE 9 11 5 6 1015.5 1011.8 0.0
09/07:30pm 33.7 30.2 1.5 13 16.5 ESE 9 13 5 7 1015.3 1011.6 0.0
09/07:00pm 35.1 31.3 -1.1 10 18.0 ESE 9 11 5 6 1014.9 1011.2 0.0
09/06:30pm 36.9 32.3 -1.1 9 19.1 SE 13 17 7 9 1014.7 1011.0 0.0
09/06:00pm 37.7 32.9 -2.2 8 19.8 SE 13 19 7 10 1014.5 1010.8 0.0
09/05:30pm 38.0 33.3 -1.9 8 19.9 ESE 13 20 7 11 1014.4 1010.7 0.0
09/05:00pm 38.0 33.9 -0.3 9 19.6 ENE 11 19 6 10 1014.3 1010.6 0.0
09/04:30pm 38.7 34.1 -1.4 8 20.3 SSE 13 22 7 12 1014.4 1010.7 0.0
09/04:00pm 38.7 34.1 -1.4 8 20.3 ESE 13 28 7 15 1014.4 1010.7 0.0
09/03:30pm 37.9 34.3 -2.0 8 19.9 SW 7 13 4 7 1014.5 1010.8 0.0
09/03:00pm 38.8 33.8 -1.3 8 20.3 SSE 15 20 8 11 1014.8 1011.1 0.0
09/02:30pm 38.1 34.7 -0.3 9 19.7 ESE 7 17 4 9 1014.9 1011.2 0.0
09/02:00pm 37.1 33.5 0.4 10 18.9 NE 9 17 5 9 1015.4 1011.7 0.0
09/01:30pm 37.8 32.9 -0.5 9 19.5 SE 15 22 8 12 1015.8 1012.2 0.0
09/01:00pm 37.1 33.5 0.4 10 18.9 SE 9 22 5 12 1016.2 1012.5 0.0
09/12:30pm 36.2 33.1 3.4 13 17.6 SSE 9 17 5 9 1016.5 1012.8 0.0
09/12:00pm 36.9 33.7 5.0 14 17.6 NE 11 19 6 10 1016.9 1013.2 0.0
09/11:30am 35.9 32.2 4.2 14 17.2 E 13 22 7 12 1017.4 1013.7 0.0
09/11:00am 35.1 32.0 7.2 18 15.8 NE 13 24 7 13 1017.7 1014.1 0.0
09/10:30am 34.5 30.9 8.3 20 15.0 ENE 17 22 9 12 1018.3 1014.6 0.0
09/10:00am 33.5 29.5 8.2 21 14.4 E 19 32 10 17 1018.6 1014.9 0.0
09/09:30am 32.4 28.3 8.0 22 13.8 ENE 19 26 10 14 1018.8 1015.1 0.0
09/09:00am 31.2 27.1 8.8 25 12.7 ENE 20 26 11 14 1019.0 1015.3 0.0
09/08:30am 30.1 26.1 9.1 27 12.0 ENE 20 30 11 16 1019.0 1015.3 0.0
09/08:00am 28.4 24.3 8.7 29 11.0 ENE 20 28 11 15 1019.0 1015.3 0.0
09/07:30am 26.9 23.3 8.4 31 10.3 ENE 17 22 9 12 1018.8 1015.1 0.0
09/07:00am 25.4 22.5 8.0 33 9.5 E 13 19 7 10 1018.7 1015.0 0.0
09/06:30am 23.7 21.0 7.3 35 8.8 E 11 17 6 9 1018.4 1014.7 0.0
09/06:00am 21.8 19.5 7.6 40 7.5 ENE 9 13 5 7 1018.0 1014.4 0.0
09/05:30am 22.3 19.5 6.9 37 8.1 E 11 13 6 7 1017.6 1013.9 0.0
09/05:00am 22.6 20.2 7.2 37 8.2 E 9 11 5 6 1017.4 1013.7 0.0
09/04:30am 23.1 20.3 6.8 35 8.6 E 11 13 6 7 1017.2 1013.5 0.0
09/04:00am 23.5 20.3 6.7 34 8.9 E 13 17 7 9 1017.0 1013.3 0.0
09/03:30am 24.1 21.4 7.3 34 9.0 E 11 13 6 7 1016.8 1013.1 0.0
09/03:00am 24.9 21.8 7.1 32 9.5 E 13 17 7 9 1016.7 1013.0 0.0
09/02:30am 25.5 22.0 7.1 31 9.9 E 15 19 8 10 1016.7 1013.0 0.0
09/02:00am 25.7 22.6 7.3 31 9.9 E 13 19 7 10 1016.7 1013.0 0.0
09/01:30am 26.0 23.2 7.1 30 10.2 E 11 15 6 8 1016.7 1013.0 0.0
09/01:00am 26.6 23.7 6.6 28 10.7 E 11 13 6 7 1016.9 1013.2 0.0
09/12:30am 27.2 23.9 6.6 27 11.1 E 13 17 7 9 1017.0 1013.3 0.0
09/12:00am 27.2 24.7 6.6 27 11.1 E 9 13 5 7 1017.2 1013.5 0.0
 
Date/Time
WST
Temp
°C
App
Temp
°C
Dew
Point
Rel
Hum
%
Delta-T
°C
Wind Press
QNH
hPa
Press
MSL
hPa
Rain
since 9 am
mm
Dir
 
Spd
km/h
Gust
km/h
Spd
kts
Gust
kts
08/11:30pm 27.0 24.8 6.4 27 11.0 ESE 7 9 4 5 1017.4 1013.7 0.0
08/11:00pm 27.5 24.6 6.3 26 11.4 ESE 11 17 6 9 1017.6 1013.9 0.0
08/10:30pm 28.4 25.4 5.9 24 12.0 ESE 11 17 6 9 1017.6 1013.9 0.0
08/10:00pm 29.0 26.0 5.8 23 12.4 ESE 11 17 6 9 1017.8 1014.2 0.0
08/09:30pm 29.8 25.8 5.1 21 13.2 ESE 15 19 8 10 1017.6 1013.9 0.0
08/09:00pm 30.1 27.0 5.4 21 13.2 SE 11 13 6 7 1017.4 1013.7 0.0
08/08:30pm 30.9 28.0 4.6 19 14.0 SE 9 13 5 7 1017.1 1013.4 0.0
08/08:00pm 31.8 28.4 3.8 17 14.7 SE 11 15 6 8 1016.7 1013.0 0.0
08/07:30pm 32.6 29.9 3.5 16 15.3 ESE 7 15 4 8 1016.4 1012.7 0.0
08/07:00pm 33.8 30.5 2.6 14 16.3 ESE 9 15 5 8 1016.0 1012.4 0.0
08/06:30pm 35.3 31.1 -0.9 10 18.1 ESE 11 13 6 7 1015.7 1012.0 0.0
08/06:00pm 36.0 31.9 -0.4 10 18.4 ESE 11 17 6 9 1015.4 1011.7 0.0
08/05:30pm 36.2 31.5 -1.7 9 18.8 SE 13 20 7 11 1015.1 1011.4 0.0
08/05:00pm 36.5 31.1 -1.4 9 18.9 SSE 17 24 9 13 1015.0 1011.3 0.0
08/04:30pm 36.3 32.6 -0.2 10 18.5 SE 9 19 5 10 1015.1 1011.4 0.0
08/04:00pm 36.7 31.9 0.1 10 18.7 ESE 15 30 8 16 1015.2 1011.5 0.0
08/03:30pm 36.3 32.0 1.2 11 18.2 SSE 13 20 7 11 1015.5 1011.8 0.0
08/03:00pm 36.1 32.0 -0.3 10 18.4 E 11 22 6 12 1015.9 1012.3 0.0
08/02:30pm 36.5 33.2 2.5 12 18.0 ENE 9 19 5 10 1016.3 1012.6 0.0
08/02:00pm 36.5 32.6 1.3 11 18.3 E 11 19 6 10 1016.6 1012.9 0.0
08/01:30pm 35.8 31.8 3.1 13 17.4 E 13 20 7 11 1017.0 1013.3 0.0
08/01:00pm 35.8 32.4 4.2 14 17.1 ESE 11 19 6 10 1017.4 1013.7 0.0
08/12:30pm 34.7 31.0 4.3 15 16.4 ESE 13 22 7 12 1017.8 1014.2 0.0
08/12:00pm 33.8 30.3 5.4 17 15.5 ENE 13 24 7 13 1018.3 1014.6 0.0
08/11:30am 33.7 29.8 5.3 17 15.5 E 15 24 8 13 1018.6 1014.9 0.0
08/11:00am 33.1 28.7 4.8 17 15.2 ENE 17 24 9 13 1019.0 1015.3 0.0
08/10:30am 31.8 27.1 5.3 19 14.3 E 19 28 10 15 1019.3 1015.6 0.0
08/10:00am 31.2 26.4 5.6 20 13.8 E 20 30 11 16 1019.6 1016.0 0.0
08/09:30am 30.4 24.8 5.6 21 13.4 E 24 33 13 18 1019.7 1016.1 0.0
08/09:00am 29.8 24.4 4.4 20 13.3 E 22 32 12 17 1019.7 1016.1 0.0
08/08:30am 28.2 22.5 5.1 23 12.2 E 24 32 13 17 1019.6 1016.0 0.0
08/08:00am 27.2 22.1 6.0 26 11.3 E 22 30 12 16 1019.7 1016.1 0.0
08/07:30am 26.1 22.0 6.2 28 10.6 E 17 24 9 13 1019.7 1016.1 0.0
08/07:00am 24.6 20.7 7.3 33 9.3 E 17 24 9 13 1019.5 1015.9 0.0
08/06:30am 23.0 20.3 7.5 37 8.3 E 11 19 6 10 1019.4 1015.7 0.0
08/06:00am 21.7 19.0 7.2 39 7.6 E 11 15 6 8 1019.1 1015.4 0.0
08/05:30am 21.8 19.0 6.9 38 7.8 E 11 15 6 8 1018.8 1015.1 0.0
08/05:00am 22.6 19.4 6.8 36 8.3 E 13 17 7 9 1018.4 1014.7 0.0
08/04:30am 23.0 19.8 6.7 35 8.6 E 13 19 7 10 1018.3 1014.6 0.0
08/04:00am 23.3 19.6 6.1 33 9.0 E 15 20 8 11 1018.1 1014.5 0.0
08/03:30am 24.0 20.2 5.8 31 9.5 E 15 22 8 12 1017.9 1014.3 0.0
08/03:00am 24.6 20.7 5.4 29 10.0 E 15 22 8 12 1017.9 1014.3 0.0
08/02:30am 24.7 21.1 5.0 28 10.2 E 13 19 7 10 1017.8 1014.2 0.0
08/02:00am 24.4 21.2 5.2 29 9.9 E 11 19 6 10 1017.9 1014.3 0.0
08/01:30am 24.4 21.6 5.2 29 9.9 ESE 9 13 5 7 1018.0 1014.4 0.0
08/01:00am 24.9 22.1 5.2 28 10.2 ESE 9 11 5 6 1018.0 1014.4 0.0
08/12:30am 25.6 22.4 5.2 27 10.6 ESE 11 15 6 8 1018.1 1014.5 0.0
08/12:00am 26.9 24.0 4.6 24 11.6 E 9 13 5 7 1018.1 1014.5 0.0
 
Date/Time
WST
Temp
°C
App
Temp
°C
Dew
Point
Rel
Hum
%
Delta-T
°C
Wind Press
QNH
hPa
Press
MSL
hPa
Rain
since 9 am
mm
Dir
 
Spd
km/h
Gust
km/h
Spd
kts
Gust
kts
07/11:30pm 27.7 24.8 4.7 23 12.0 ESE 9 15 5 8 1018.1 1014.5 0.0
07/11:00pm 28.5 24.7 4.1 21 12.7 ESE 13 19 7 10 1018.1 1014.5 0.0
07/10:30pm 29.1 25.3 3.9 20 13.1 ESE 13 20 7 11 1018.1 1014.5 0.0
07/10:00pm 29.1 25.0 4.6 21 12.9 SE 15 20 8 11 1018.1 1014.5 0.0
07/09:30pm 29.4 25.0 4.8 21 13.0 SE 17 20 9 11 1017.9 1014.3 0.0
07/09:00pm 29.2 27.0 6.0 23 12.5 SE 7 9 4 5 1017.5 1013.8 0.0
07/08:30pm 29.4 27.2 6.1 23 12.6 ESE 7 9 4 5 1017.1 1013.4 0.0
07/08:00pm 30.3 28.0 5.6 21 13.3 E 7 11 4 6 1016.8 1013.1 0.0
07/07:30pm 31.4 28.9 5.0 19 14.2 E 7 11 4 6 1016.5 1012.8 0.0
07/07:00pm 32.9 29.8 3.8 16 15.4 ENE 9 15 5 8 1016.0 1012.4 0.0
07/06:30pm 34.3 30.2 2.0 13 16.8 ENE 13 19 7 10 1015.5 1011.8 0.0
07/06:00pm 35.0 30.4 1.4 12 17.3 ENE 15 20 8 11 1015.1 1011.4 0.0
07/05:30pm 35.5 30.9 1.8 12 17.6 ESE 15 24 8 13 1014.9 1011.2 0.0
07/05:00pm 35.4 30.8 1.7 12 17.5 E 15 30 8 16 1014.6 1010.9 0.0
07/04:30pm 35.7 30.6 3.0 13 17.4 E 19 26 10 14 1014.5 1010.8 0.0
07/04:00pm 35.5 31.5 2.9 13 17.3 ESE 13 24 7 13 1014.5 1010.8 0.0
07/03:30pm 36.4 32.5 3.6 13 17.7 ENE 13 24 7 13 1014.7 1011.0 0.0
07/03:00pm 34.8 30.7 2.3 13 17.0 ESE 13 20 7 11 1014.8 1011.1 0.0
07/02:30pm 35.9 32.0 3.2 13 17.5 E 13 24 7 13 1015.1 1011.4 0.0
07/02:00pm 35.0 30.6 2.5 13 17.1 NE 15 24 8 13 1015.4 1011.7 0.0
07/01:30pm 34.9 31.0 3.5 14 16.8 E 13 24 7 13 1015.7 1012.0 0.0
07/01:00pm 34.5 30.4 4.1 15 16.3 NE 15 24 8 13 1016.0 1012.4 0.0
07/12:30pm 33.9 29.7 3.7 15 16.1 ESE 15 22 8 12 1016.4 1012.7 0.0
07/12:00pm 34.0 30.1 5.5 17 15.6 ENE 15 24 8 13 1016.8 1013.1 0.0
07/11:30am 33.8 30.5 6.2 18 15.3 ENE 13 22 7 12 1017.1 1013.4 0.0
07/11:00am 32.6 29.0 6.7 20 14.4 E 15 20 8 11 1017.4 1013.7 0.0
07/10:30am 31.1 26.9 7.5 23 13.2 ENE 19 30 10 16 1017.8 1014.2 0.0
07/10:00am 30.4 26.2 8.2 25 12.5 ENE 20 30 11 16 1018.0 1014.4 0.0
07/09:30am 29.9 26.4 8.9 27 11.9 ENE 17 30 9 16 1018.3 1014.6 0.0
07/09:00am 28.8 24.8 9.0 29 11.2 ENE 20 30 11 16 1018.4 1014.7 0.0
07/08:30am 27.3 21.8 7.7 29 10.8 ENE 26 37 14 20 1018.3 1014.6 0.0
07/08:00am 26.6 21.3 8.6 32 10.0 ENE 26 37 14 20 1017.9 1014.3 0.0
07/07:30am 25.5 21.1 8.9 35 9.2 E 22 30 12 16 1017.8 1014.2 0.0
07/07:00am 24.0 20.7 9.6 40 8.0 E 17 22 9 12 1017.6 1013.9 0.0
07/06:30am 22.5 20.0 9.6 44 7.1 E 13 17 7 9 1017.4 1013.7 0.0
07/06:00am 20.7 18.6 9.6 49 6.1 E 11 17 6 9 1017.0 1013.3 0.0
07/05:30am 20.8 18.5 9.1 47 6.4 E 11 15 6 8 1016.6 1012.9 0.0
07/05:00am 21.1 18.3 8.7 45 6.7 E 13 17 7 9 1016.2 1012.5 0.0
07/04:30am 21.2 18.7 8.1 43 7.0 E 11 13 6 7 1015.8 1012.2 0.0
07/04:00am 21.3 19.6 8.2 43 7.0 ESE 7 11 4 6 1015.7 1012.0 0.0
07/03:30am 21.4 19.5 7.6 41 7.3 ESE 7 9 4 5 1015.6 1011.9 0.0
07/03:00am 21.8 19.8 7.2 39 7.7 ESE 7 7 4 4 1015.7 1012.0 0.0
07/02:30am 22.4 20.5 6.6 36 8.3 ESE 6 7 3 4 1015.5 1011.8 0.0
07/02:00am 22.6 20.5 6.8 36 8.3 E 7 7 4 4 1015.3 1011.6 0.0
07/01:30am 23.7 21.6 6.5 33 9.1 E 7 11 4 6 1015.3 1011.6 0.0
07/01:00am 24.5 21.8 5.8 30 9.8 ESE 9 13 5 7 1015.2 1011.5 0.0
07/12:30am 25.5 22.1 5.7 28 10.4 SE 13 17 7 9 1015.3 1011.6 0.0
07/12:00am 25.8 21.8 4.9 26 10.8 SE 15 20 8 11 1015.5 1011.8 0.0
 
Date/Time
WST
Temp
°C
App
Temp
°C
Dew
Point
Rel
Hum
%
Delta-T
°C
Wind Press
QNH
hPa
Press
MSL
hPa
Rain
since 9 am
mm
Dir
 
Spd
km/h
Gust
km/h
Spd
kts
Gust
kts
06/11:30pm 25.9 22.3 4.9 26 10.9 SE 13 19 7 10 1015.5 1011.8 0.0
06/11:00pm 26.4 22.0 4.8 25 11.2 SE 17 20 9 11 1015.5 1011.8 0.0
06/10:30pm 26.8 22.3 4.0 23 11.7 SE 17 20 9 11 1015.6 1011.9 0.0
06/10:00pm 27.3 23.1 3.7 22 12.1 SE 15 20 8 11 1015.6 1011.9 0.0

Other Formats:

Comma delimited format used in spreadsheet applications
http://www.bom.gov.au/fwo/IDW60801/IDW60801.95448.axf

JavaScript Object Notation format (JSON) in row-major order
http://www.bom.gov.au/fwo/IDW60801/IDW60801.95448.json